createdAt,value
2018-07-13T00:00:11.580Z,20.20
2018-07-13T00:02:39.853Z,20.30
2018-07-13T00:05:20.140Z,20.20
2018-07-13T00:08:00.709Z,20.10
2018-07-13T00:10:29.015Z,20.20
2018-07-13T00:13:09.320Z,20.10
2018-07-13T00:15:43.681Z,20.20
2018-07-13T00:18:24.297Z,20.30
2018-07-13T00:20:52.782Z,20.30
2018-07-13T00:23:33.790Z,20.30
2018-07-13T00:26:14.534Z,20.20
2018-07-13T00:28:42.806Z,20.20
2018-07-13T00:31:23.881Z,20.20
2018-07-13T00:34:04.472Z,20.20
2018-07-13T00:36:45.264Z,20.20
2018-07-13T00:39:25.862Z,20.20
2018-07-13T00:42:06.513Z,20.20
2018-07-13T00:44:47.220Z,20.10
2018-07-13T00:47:15.507Z,20.00
2018-07-13T00:49:43.738Z,20.10
2018-07-13T00:52:24.554Z,20.10
2018-07-13T00:55:05.107Z,20.10
2018-07-13T00:57:45.904Z,20.00
2018-07-13T01:00:26.570Z,19.90
2018-07-13T01:02:54.796Z,19.90
2018-07-13T01:05:34.985Z,19.90
2018-07-13T01:08:15.687Z,19.80
2018-07-13T01:10:43.957Z,19.80
2018-07-13T01:13:24.111Z,19.70
2018-07-13T01:15:52.404Z,19.70
2018-07-13T01:18:20.720Z,19.70
2018-07-13T01:20:54.414Z,19.70
2018-07-13T01:23:36.093Z,19.60
2018-07-13T01:26:16.860Z,19.50
2018-07-13T01:28:57.324Z,19.60
2018-07-13T01:31:37.888Z,19.60
2018-07-13T01:34:06.329Z,19.60
2018-07-13T01:36:34.646Z,19.60
2018-07-13T01:39:15.249Z,19.60
2018-07-13T01:41:57.522Z,19.50
2018-07-13T01:44:25.782Z,19.50
2018-07-13T01:46:57.959Z,19.50
2018-07-13T01:49:26.194Z,19.50
2018-07-13T01:52:06.805Z,19.40
2018-07-13T01:54:35.165Z,19.40
2018-07-13T01:57:05.916Z,19.40
2018-07-13T01:59:34.222Z,19.40
2018-07-13T02:02:02.679Z,19.40
2018-07-13T02:04:30.956Z,19.30
2018-07-13T02:06:59.197Z,19.30
2018-07-13T02:09:27.439Z,19.20
2018-07-13T02:11:55.812Z,19.30
2018-07-13T02:14:36.186Z,19.20
2018-07-13T02:17:04.511Z,19.20
2018-07-13T02:19:44.765Z,19.30
2018-07-13T02:22:25.267Z,19.20
2018-07-13T02:24:53.572Z,19.30
2018-07-13T02:27:33.891Z,19.20
2018-07-13T02:30:02.162Z,19.10
2018-07-13T02:32:30.438Z,19.10
2018-07-13T02:34:58.761Z,19.10
2018-07-13T02:37:39.797Z,19.00
2018-07-13T02:40:20.496Z,19.00
2018-07-13T02:42:48.825Z,19.00
2018-07-13T02:45:29.739Z,19.00
2018-07-13T02:48:10.440Z,19.00
2018-07-13T02:50:51.117Z,19.00
2018-07-13T02:53:19.424Z,19.00
2018-07-13T02:55:59.624Z,19.00
2018-07-13T02:58:40.406Z,19.00
2018-07-13T03:01:08.678Z,18.90
2018-07-13T03:03:36.914Z,18.90
2018-07-13T03:06:05.243Z,18.90
2018-07-13T03:08:45.605Z,18.80
2018-07-13T03:11:26.447Z,18.80
2018-07-13T03:14:07.703Z,18.80
2018-07-13T03:16:48.728Z,18.90
2018-07-13T03:19:29.350Z,18.90
2018-07-13T03:22:10.095Z,18.90
2018-07-13T03:24:38.549Z,18.80
2018-07-13T03:27:19.604Z,18.80
2018-07-13T03:29:47.853Z,18.70
2018-07-13T03:32:16.920Z,18.60
2018-07-13T03:34:45.193Z,18.60
2018-07-13T03:37:25.575Z,18.60
2018-07-13T03:39:56.172Z,18.50
2018-07-13T03:42:24.414Z,18.50
2018-07-13T03:45:04.992Z,18.50
2018-07-13T03:47:33.298Z,18.50
2018-07-13T03:50:13.477Z,18.50
2018-07-13T03:52:54.175Z,18.50
2018-07-13T03:55:34.870Z,18.50
2018-07-13T03:58:03.143Z,18.50
2018-07-13T04:00:43.478Z,18.50
2018-07-13T04:03:24.136Z,18.50
2018-07-13T04:06:04.738Z,18.50
2018-07-13T04:08:45.413Z,18.60
2018-07-13T04:11:26.028Z,18.50
2018-07-13T04:14:06.792Z,18.50
2018-07-13T04:16:47.715Z,18.40
2018-07-13T04:19:28.389Z,18.30
2018-07-13T04:21:56.944Z,18.40
2018-07-13T04:24:37.629Z,18.40
2018-07-13T04:27:05.871Z,18.30
2018-07-13T04:29:34.231Z,18.30
2018-07-13T04:32:14.736Z,18.40
2018-07-13T04:34:43.187Z,18.40
2018-07-13T04:37:24.294Z,18.50
2018-07-13T04:39:52.609Z,18.40
2018-07-13T04:42:22.433Z,18.50
2018-07-13T04:44:50.698Z,18.50
2018-07-13T04:47:31.635Z,18.40
2018-07-13T04:50:12.450Z,18.40
2018-07-13T04:52:40.826Z,18.50
2018-07-13T04:55:14.872Z,18.50
2018-07-13T04:57:43.131Z,18.50
2018-07-13T05:00:17.438Z,18.40
2018-07-13T05:02:45.776Z,18.50
2018-07-13T05:05:26.890Z,18.50
2018-07-13T05:07:55.217Z,18.70
2018-07-13T05:10:35.618Z,18.90
2018-07-13T05:13:05.395Z,19.20
2018-07-13T05:15:34.060Z,19.40
2018-07-13T05:18:14.324Z,19.50
2018-07-13T05:20:54.929Z,19.30
2018-07-13T05:23:35.470Z,19.20
2018-07-13T05:26:16.242Z,19.10
2018-07-13T05:28:56.961Z,19.10
2018-07-13T05:31:37.837Z,19.20
2018-07-13T05:34:18.547Z,19.30
2018-07-13T05:36:59.233Z,19.40
2018-07-13T05:39:27.512Z,19.60
2018-07-13T05:42:08.553Z,19.50
2018-07-13T05:44:36.810Z,19.40
2018-07-13T05:47:05.120Z,19.60
2018-07-13T05:49:33.584Z,19.70
2018-07-13T05:52:01.871Z,19.70
2018-07-13T05:54:42.658Z,19.70
2018-07-13T05:57:11.503Z,19.60
2018-07-13T05:59:39.829Z,19.50
2018-07-13T06:02:10.629Z,19.50
2018-07-13T06:04:38.960Z,19.50
2018-07-13T06:07:08.319Z,19.60
2018-07-13T06:09:38.165Z,19.60
2018-07-13T06:12:07.508Z,19.70
2018-07-13T06:14:47.976Z,19.80
2018-07-13T06:17:28.563Z,19.90
2018-07-13T06:20:09.691Z,20.00
2018-07-13T06:22:50.038Z,20.10
2018-07-13T06:25:18.307Z,20.20
2018-07-13T06:27:46.591Z,20.30
2018-07-13T06:30:27.288Z,20.40
2018-07-13T06:33:08.253Z,20.40
2018-07-13T06:35:36.789Z,20.30
2018-07-13T06:38:17.380Z,20.00
2018-07-13T06:40:57.963Z,19.90
2018-07-13T06:43:38.596Z,19.90
2018-07-13T06:46:07.870Z,19.90
2018-07-13T06:48:36.192Z,20.00
2018-07-13T06:51:04.464Z,20.00
2018-07-13T06:53:32.962Z,20.10
2018-07-13T06:56:13.759Z,20.10
2018-07-13T06:58:53.454Z,20.10
2018-07-13T07:01:21.887Z,20.00
2018-07-13T07:04:59.191Z,19.80
2018-07-13T07:07:27.803Z,19.80
2018-07-13T07:09:58.200Z,19.70
2018-07-13T07:12:52.555Z,19.80
2018-07-13T07:15:21.604Z,19.80
2018-07-13T07:17:49.983Z,19.90
2018-07-13T07:20:30.610Z,19.90
2018-07-13T07:23:11.282Z,20.10
2018-07-13T07:25:39.647Z,20.30
2018-07-13T07:28:20.612Z,20.40
2018-07-13T07:31:01.820Z,20.60
2018-07-13T07:33:42.716Z,20.60
2018-07-13T07:36:23.422Z,20.50
2018-07-13T07:39:04.092Z,20.60
2018-07-13T07:41:44.580Z,20.60
2018-07-13T07:44:25.276Z,20.50
2018-07-13T07:46:54.686Z,20.40
2018-07-13T07:49:24.090Z,20.40
2018-07-13T07:51:53.081Z,20.50
2018-07-13T07:54:21.515Z,20.10
2018-07-13T07:56:50.002Z,20.30
2018-07-13T07:59:30.191Z,20.10
2018-07-13T08:01:58.511Z,20.10
2018-07-13T08:04:26.903Z,20.10
2018-07-13T08:06:55.411Z,19.90
2018-07-13T08:09:24.285Z,19.60
2018-07-13T08:11:56.139Z,19.60
2018-07-13T08:14:24.429Z,19.70
2018-07-13T08:16:52.706Z,19.70
2018-07-13T08:19:27.046Z,19.70
2018-07-13T08:22:07.787Z,19.70
2018-07-13T08:24:48.155Z,19.60
2018-07-13T08:27:20.594Z,19.40
2018-07-13T08:30:00.957Z,19.20
2018-07-13T08:32:30.063Z,19.10
2018-07-13T08:35:10.524Z,19.10
2018-07-13T08:37:38.991Z,19.20
2018-07-13T08:40:12.719Z,19.30
2018-07-13T08:42:41.558Z,19.30
2018-07-13T08:45:09.828Z,19.40
2018-07-13T08:47:38.057Z,19.50
2018-07-13T08:50:06.331Z,19.50
2018-07-13T08:52:39.144Z,19.50
2018-07-13T08:55:10.561Z,19.60
2018-07-13T08:57:50.727Z,19.70
2018-07-13T09:00:20.328Z,19.90
2018-07-13T09:02:50.561Z,19.90
2018-07-13T09:05:31.009Z,19.70
2018-07-13T09:08:11.636Z,19.70
2018-07-13T09:10:40.414Z,19.70
2018-07-13T09:13:08.635Z,19.80
2018-07-13T09:15:36.880Z,19.80
2018-07-13T09:18:05.109Z,19.90
2018-07-13T09:20:33.319Z,19.90
2018-07-13T09:23:01.472Z,20.00
2018-07-13T09:25:29.802Z,20.00
2018-07-13T09:27:58.683Z,20.20
2018-07-13T09:30:39.241Z,20.20
2018-07-13T09:33:07.464Z,20.10
2018-07-13T09:35:47.658Z,20.20
2018-07-13T09:38:17.213Z,20.20
2018-07-13T09:40:57.373Z,20.40
2018-07-13T09:43:25.656Z,20.60
2018-07-13T09:45:53.937Z,20.70
2018-07-13T09:48:22.254Z,20.80
2018-07-13T09:50:50.545Z,21.00
2018-07-13T09:53:31.425Z,21.10
2018-07-13T09:55:59.652Z,21.20
2018-07-13T09:58:33.527Z,21.20
2018-07-13T10:01:07.267Z,21.20
2018-07-13T10:03:48.422Z,21.20
2018-07-13T10:06:29.160Z,21.30
2018-07-13T10:09:09.902Z,21.40
2018-07-13T10:11:38.150Z,21.50
2018-07-13T10:14:19.509Z,21.70
2018-07-13T10:16:47.770Z,21.60
2018-07-13T10:19:15.946Z,21.90
2018-07-13T10:21:56.802Z,22.00
2018-07-13T10:24:25.679Z,22.20
2018-07-13T10:26:54.844Z,22.40
2018-07-13T10:29:35.022Z,22.40
2018-07-13T10:32:03.526Z,22.60
2018-07-13T10:34:32.209Z,22.60
2018-07-13T10:37:06.980Z,22.70
2018-07-13T10:39:38.119Z,22.90
2018-07-13T10:42:06.594Z,23.00
2018-07-13T10:44:46.780Z,22.70
2018-07-13T10:47:15.895Z,22.60
2018-07-13T10:49:44.115Z,22.60
2018-07-13T10:52:12.381Z,22.70
2018-07-13T10:54:40.628Z,22.80
2018-07-13T10:57:10.043Z,22.90
2018-07-13T10:59:40.090Z,22.90
2018-07-13T11:02:20.178Z,22.90
2018-07-13T11:05:00.868Z,23.00
2018-07-13T11:07:29.158Z,23.20
2018-07-13T11:09:57.926Z,23.40
2018-07-13T11:12:26.127Z,23.30
2018-07-13T11:15:07.027Z,23.30
2018-07-13T11:17:47.611Z,23.30
2018-07-13T11:20:19.281Z,23.40
2018-07-13T11:22:59.921Z,23.60
2018-07-13T11:25:40.544Z,23.80
2018-07-13T11:28:21.233Z,23.80
2018-07-13T11:31:01.718Z,23.90
2018-07-13T11:33:29.944Z,24.20
2018-07-13T11:35:58.141Z,25.10
2018-07-13T11:38:39.143Z,26.40
2018-07-13T11:41:07.414Z,27.20
2018-07-13T11:43:48.436Z,27.50
2018-07-13T11:46:28.932Z,27.30
2018-07-13T11:48:57.214Z,26.90
2018-07-13T11:51:37.346Z,26.20
2018-07-13T11:54:05.562Z,25.80
2018-07-13T11:56:33.731Z,25.50
2018-07-13T11:59:14.730Z,25.30
2018-07-13T12:01:43.201Z,25.70
2018-07-13T12:04:11.485Z,26.40
2018-07-13T12:06:51.753Z,27.70
2018-07-13T12:09:20.026Z,28.80
2018-07-13T12:12:00.122Z,29.30
2018-07-13T12:14:28.480Z,29.50
2018-07-13T12:17:00.252Z,29.80
2018-07-13T12:19:41.295Z,30.20
2018-07-13T12:22:21.944Z,31.00
2018-07-13T12:25:02.603Z,31.20
2018-07-13T12:27:33.099Z,31.50
2018-07-13T12:30:08.077Z,32.20
2018-07-13T12:32:37.358Z,32.30
2018-07-13T12:35:05.566Z,30.80
2018-07-13T12:37:38.192Z,30.90
2018-07-13T12:40:06.533Z,30.90
2018-07-13T12:42:34.814Z,30.90
2018-07-13T12:45:08.918Z,30.90
2018-07-13T12:47:49.453Z,30.40
2018-07-13T12:50:18.646Z,30.10
2018-07-13T12:52:48.234Z,29.40
2018-07-13T12:55:17.384Z,28.70
2018-07-13T12:57:57.494Z,28.50
2018-07-13T13:00:38.241Z,28.00
2018-07-13T13:03:18.915Z,28.10
2018-07-13T13:05:59.773Z,28.30
2018-07-13T13:08:27.964Z,28.60
2018-07-13T13:11:09.025Z,28.90
2018-07-13T13:13:49.425Z,28.70
2018-07-13T13:16:18.358Z,28.60
2018-07-13T13:18:58.964Z,28.30
2018-07-13T13:21:29.927Z,28.20
2018-07-13T13:24:10.265Z,28.20
2018-07-13T13:26:38.548Z,28.20
2018-07-13T13:29:19.549Z,28.50
2018-07-13T13:32:00.073Z,28.50
2018-07-13T13:34:40.671Z,28.30
2018-07-13T13:37:21.395Z,28.20
2018-07-13T13:40:01.844Z,28.30
2018-07-13T13:42:42.329Z,28.50
2018-07-13T13:45:23.001Z,28.60
2018-07-13T13:48:03.484Z,28.30
2018-07-13T13:50:44.152Z,28.30
2018-07-13T13:53:12.436Z,28.30
2018-07-13T13:55:52.735Z,28.30
2018-07-13T13:58:33.298Z,28.40
2018-07-13T14:01:13.999Z,28.50
2018-07-13T14:03:54.578Z,28.50
2018-07-13T14:06:22.772Z,28.60
2018-07-13T14:08:51.053Z,28.90
2018-07-13T14:11:19.931Z,29.00
2018-07-13T14:14:00.426Z,29.10
2018-07-13T14:16:41.315Z,29.20
2018-07-13T14:19:21.626Z,29.20
2018-07-13T14:22:02.302Z,29.50
2018-07-13T14:24:42.945Z,29.40
2018-07-13T14:27:23.678Z,29.20
2018-07-13T14:29:51.955Z,29.00
2018-07-13T14:32:20.168Z,29.20
2018-07-13T14:35:00.944Z,29.30
2018-07-13T14:37:41.579Z,29.30
2018-07-13T14:40:22.107Z,29.50
2018-07-13T14:42:50.357Z,29.60
2018-07-13T14:45:18.513Z,29.70
2018-07-13T14:47:59.237Z,29.40
2018-07-13T14:50:39.623Z,29.60
2018-07-13T14:53:08.421Z,29.80
2018-07-13T14:55:49.137Z,29.80
2018-07-13T14:58:29.667Z,29.80
2018-07-13T15:01:10.469Z,29.60
2018-07-13T15:03:51.229Z,29.40
2018-07-13T15:06:31.991Z,29.60
2018-07-13T15:09:12.337Z,29.70
2018-07-13T15:11:52.913Z,29.80
2018-07-13T15:14:33.525Z,29.90
2018-07-13T15:17:14.147Z,29.90
2018-07-13T15:19:42.373Z,29.80
2018-07-13T15:22:22.501Z,29.70
2018-07-13T15:25:03.166Z,30.00
2018-07-13T15:27:31.410Z,30.10
2018-07-13T15:30:00.140Z,30.90
2018-07-13T15:32:28.478Z,31.50
2018-07-13T15:35:09.235Z,31.90
2018-07-13T15:37:39.232Z,31.80
2018-07-13T15:40:20.327Z,31.50
2018-07-13T15:42:48.609Z,31.40
2018-07-13T15:45:28.882Z,31.40
2018-07-13T15:48:09.267Z,31.40
2018-07-13T15:50:49.882Z,31.30
2018-07-13T15:53:30.567Z,31.00
2018-07-13T15:56:11.236Z,31.20
2018-07-13T15:58:51.665Z,31.10
2018-07-13T16:01:32.175Z,31.00
2018-07-13T16:04:12.837Z,30.60
2018-07-13T16:06:53.493Z,29.80
2018-07-13T16:09:34.021Z,29.00
2018-07-13T16:12:14.726Z,28.90
2018-07-13T16:14:42.990Z,28.60
2018-07-13T16:17:23.364Z,28.20
2018-07-13T16:19:52.546Z,27.90
2018-07-13T16:22:32.745Z,27.60
2018-07-13T16:25:01.063Z,27.10
2018-07-13T16:27:30.717Z,27.00
2018-07-13T16:30:11.053Z,27.00
2018-07-13T16:32:51.539Z,26.90
2018-07-13T16:35:32.592Z,26.90
2018-07-13T16:38:12.884Z,26.90
2018-07-13T16:40:41.182Z,27.00
2018-07-13T16:43:22.172Z,26.90
2018-07-13T16:45:50.422Z,26.90
2018-07-13T16:48:30.555Z,27.20
2018-07-13T16:51:11.211Z,28.20
2018-07-13T16:53:51.716Z,28.50
2018-07-13T16:56:32.523Z,28.60
2018-07-13T16:59:00.869Z,28.60
2018-07-13T17:01:29.160Z,28.70
2018-07-13T17:04:09.248Z,29.30
2018-07-13T17:06:49.768Z,29.90
2018-07-13T17:09:30.330Z,30.10
2018-07-13T17:11:58.580Z,30.10
2018-07-13T17:14:38.720Z,30.40
2018-07-13T17:17:19.337Z,30.50
2018-07-13T17:20:00.165Z,30.30
2018-07-13T17:22:40.918Z,30.20
2018-07-13T17:25:11.269Z,30.10
2018-07-13T17:27:51.598Z,30.10
2018-07-13T17:30:32.255Z,30.10
2018-07-13T17:33:12.895Z,29.70
2018-07-13T17:35:53.438Z,29.20
2018-07-13T17:38:34.223Z,28.80
2018-07-13T17:41:14.869Z,28.50
2018-07-13T17:43:43.176Z,28.00
2018-07-13T17:46:23.327Z,27.60
2018-07-13T17:48:52.804Z,27.20
2018-07-13T17:51:33.086Z,26.80
2018-07-13T17:54:13.772Z,26.70
2018-07-13T17:56:54.367Z,26.50
2018-07-13T17:59:34.988Z,26.50
2018-07-13T18:02:03.195Z,26.50
2018-07-13T18:04:43.317Z,26.40
2018-07-13T18:07:24.076Z,26.30
2018-07-13T18:09:52.383Z,26.10
2018-07-13T18:12:32.562Z,26.00
2018-07-13T18:15:13.097Z,25.80
2018-07-13T18:17:41.346Z,25.60
2018-07-13T18:20:22.398Z,25.40
2018-07-13T18:22:50.712Z,25.40
2018-07-13T18:25:30.799Z,25.40
2018-07-13T18:27:59.042Z,25.00
2018-07-13T18:30:39.246Z,25.00
2018-07-13T18:33:19.875Z,25.00
2018-07-13T18:36:00.304Z,24.90
2018-07-13T18:38:41.151Z,24.80
2018-07-13T18:41:11.744Z,24.80
2018-07-13T18:43:52.376Z,24.90
2018-07-13T18:46:20.617Z,24.70
2018-07-13T18:48:48.830Z,24.80
2018-07-13T18:51:29.344Z,25.00
2018-07-13T18:53:58.606Z,25.00
2018-07-13T18:56:26.832Z,25.00
2018-07-13T18:59:07.565Z,24.90
2018-07-13T19:01:48.194Z,24.80
2018-07-13T19:04:28.941Z,24.50
2018-07-13T19:06:57.224Z,24.20
2018-07-13T19:09:38.108Z,24.10
2018-07-13T19:12:07.093Z,24.20
2018-07-13T19:14:47.517Z,24.30
2018-07-13T19:17:28.138Z,24.40
2018-07-13T19:19:56.394Z,24.50
2018-07-13T19:22:37.728Z,24.40
2018-07-13T19:25:06.013Z,24.60
2018-07-13T19:27:46.919Z,24.60
2018-07-13T19:30:15.145Z,24.60
2018-07-13T19:32:43.399Z,24.60
2018-07-13T19:35:11.724Z,24.50
2018-07-13T19:37:52.155Z,24.30
2018-07-13T19:40:23.900Z,24.10
2018-07-13T19:42:52.853Z,24.10
2018-07-13T19:45:33.378Z,24.00
2018-07-13T19:48:01.615Z,24.00
2018-07-13T19:50:41.795Z,23.70
2018-07-13T19:53:22.405Z,23.80
2018-07-13T19:55:50.605Z,23.70
2018-07-13T19:58:31.116Z,23.70
2018-07-13T20:01:11.711Z,23.70
2018-07-13T20:03:52.379Z,23.70
2018-07-13T20:06:32.878Z,23.60
2018-07-13T20:09:13.516Z,23.50
2018-07-13T20:11:41.760Z,23.60
2018-07-13T20:14:21.985Z,23.70
2018-07-13T20:17:02.714Z,23.80
2018-07-13T20:19:43.249Z,23.70
2018-07-13T20:22:13.600Z,23.80
2018-07-13T20:24:53.859Z,23.70
2018-07-13T20:27:34.591Z,23.70
2018-07-13T20:30:15.201Z,23.50
2018-07-13T20:32:55.847Z,23.50
2018-07-13T20:35:36.557Z,23.40
2018-07-13T20:38:04.836Z,23.30
2018-07-13T20:40:40.379Z,23.30
2018-07-13T20:43:08.648Z,23.20
2018-07-13T20:45:49.171Z,23.20
2018-07-13T20:48:29.854Z,23.20
2018-07-13T20:50:58.090Z,23.20
2018-07-13T20:53:38.493Z,23.10
2018-07-13T20:56:06.710Z,23.10
2018-07-13T20:58:48.135Z,23.00
2018-07-13T21:01:16.485Z,23.10
2018-07-13T21:04:01.199Z,23.20
2018-07-13T21:06:45.924Z,23.20
2018-07-13T21:09:14.142Z,23.20
2018-07-13T21:11:54.772Z,23.30
2018-07-13T21:14:23.538Z,23.20
2018-07-13T21:16:51.844Z,23.20
2018-07-13T21:19:20.077Z,23.20
2018-07-13T21:21:48.297Z,23.20
2018-07-13T21:24:28.634Z,23.20
2018-07-13T21:27:09.224Z,23.10
2018-07-13T21:29:50.091Z,23.00
2018-07-13T21:32:30.710Z,23.00
2018-07-13T21:35:11.410Z,23.00
2018-07-13T21:37:52.041Z,23.00
2018-07-13T21:40:20.250Z,23.00
2018-07-13T21:43:00.550Z,22.90
2018-07-13T21:45:41.373Z,22.90
2018-07-13T21:48:21.829Z,22.70
2018-07-13T21:51:02.732Z,22.70
2018-07-13T21:53:31.770Z,22.60
2018-07-13T21:56:11.959Z,22.60
2018-07-13T21:58:40.485Z,22.60
2018-07-13T22:01:21.400Z,22.50
2018-07-13T22:03:49.591Z,22.40
2018-07-13T22:06:17.838Z,22.40
2018-07-13T22:08:58.616Z,22.40
2018-07-13T22:11:39.239Z,22.40
2018-07-13T22:14:20.145Z,22.30
2018-07-13T22:16:48.423Z,22.30
2018-07-13T22:19:28.669Z,22.20
2018-07-13T22:22:03.512Z,22.20
2018-07-13T22:24:32.165Z,22.10
2018-07-13T22:27:00.515Z,22.10
2018-07-13T22:29:35.767Z,22.00
2018-07-13T22:32:05.010Z,22.00
2018-07-13T22:34:33.301Z,22.00
2018-07-13T22:37:09.348Z,21.90
2018-07-13T22:39:50.165Z,21.90
2018-07-13T22:42:18.431Z,21.80
2018-07-13T22:44:59.464Z,21.80
2018-07-13T22:47:40.063Z,21.70
2018-07-13T22:50:20.645Z,21.70
2018-07-13T22:53:01.407Z,21.60
2018-07-13T22:55:42.144Z,21.60
2018-07-13T22:58:22.921Z,21.70
2018-07-13T23:01:03.505Z,21.70
2018-07-13T23:03:44.227Z,21.70
2018-07-13T23:06:24.890Z,21.60
2018-07-13T23:09:05.778Z,21.50
2018-07-13T23:11:46.109Z,21.50
2018-07-13T23:14:14.455Z,21.50
2018-07-13T23:16:42.834Z,21.50
2018-07-13T23:19:23.513Z,21.50
2018-07-13T23:22:04.127Z,21.40
2018-07-13T23:24:44.705Z,21.40
2018-07-13T23:27:12.931Z,21.40
2018-07-13T23:29:53.791Z,21.30
2018-07-13T23:32:33.945Z,21.30
2018-07-13T23:35:14.738Z,21.30
2018-07-13T23:37:55.179Z,21.30
2018-07-13T23:40:23.391Z,21.30
2018-07-13T23:42:51.634Z,21.30
2018-07-13T23:45:19.814Z,21.30
2018-07-13T23:47:49.384Z,21.30
2018-07-13T23:50:17.654Z,21.30
2018-07-13T23:52:53.371Z,21.20
2018-07-13T23:55:23.080Z,21.20
2018-07-13T23:58:03.656Z,21.10
